Vicksburg, Michigan
Current Conditions -  °F | °C
As of 2:53 AM on Saturday 25 Oct 2014 (Local Time) from KAZO Reporting Station
Haze Haze  
Wind Chill: 51°   Ceiling: 10000
Heat Index: 51°   Visibility: 4mi
Dew Point: 48°   Wind: 7mph
Humidity: 89%   Direction: 170°S
Pressure: 29.91"   Gusts: NA
Location:  42.12°N, 85.53°W
Report Text: KAZO 250653Z AUTO 17006KT 4SM BR SCT065 OVC100 11/09 A2991 RMK AO2 SLP130 T01060089
Loading
Personal Weather Stations






























Interactive Weather Map
Tropical Storm Tracking
New forecast layout! Learn more

10-Day Weather Forecast

Advertisements
Track Severe Weather on mobile